EKO weather

Elko Regional Airport
Elko, Nevada, United States

Public forecast

Using degrees Fahrenheit for public forecast. Weather courtesy of forecast.io.

METAR (pilot weather report)

Retrieved 2019/09/19 02:56 UTC (10 minutes ago):

KEKO 190256Z AUTO 04007KT 10SM OVC110 14/02 A2994 RMK AO2 SLP124 T01390022 53033

TAF (pilot weather forecast)

Forecast is more than 12 hours old.

Retrieved 2019/09/18 00:33 UTC (1 day ago):

TAF KEKO 182330Z 1900/1924 29015G30KT P6SM SCT100 BKN200 FM190200 32008KT P6SM VCSH SCT060 BKN100 FM190600 VRB06KT 5SM -SHRA SCT050 OVC080 FM191600 01008KT 5SM -SHRA BKN015 OVC040